sensor_id;sensor_type;location;lat;lon;timestamp;P1;durP1;ratioP1;P2;durP2;ratioP2
14526;SDS011;7350;51.208;4.238;2023-05-23T00:00:59;9.55;;;7.88;;
14526;SDS011;7350;51.208;4.238;2023-05-23T00:03:26;10.30;;;7.70;;
14526;SDS011;7350;51.208;4.238;2023-05-23T00:05:56;8.80;;;7.65;;
14526;SDS011;7350;51.208;4.238;2023-05-23T00:08:23;9.57;;;7.82;;
14526;SDS011;7350;51.208;4.238;2023-05-23T00:10:51;10.15;;;8.18;;
14526;SDS011;7350;51.208;4.238;2023-05-23T00:13:17;9.50;;;8.10;;
14526;SDS011;7350;51.208;4.238;2023-05-23T00:15:44;7.93;;;7.13;;
14526;SDS011;7350;51.208;4.238;2023-05-23T00:18:12;10.13;;;7.75;;
14526;SDS011;7350;51.208;4.238;2023-05-23T00:20:40;9.88;;;7.55;;
14526;SDS011;7350;51.208;4.238;2023-05-23T00:23:09;10.10;;;7.50;;
14526;SDS011;7350;51.208;4.238;2023-05-23T00:25:42;8.68;;;7.78;;
14526;SDS011;7350;51.208;4.238;2023-05-23T00:28:12;8.77;;;7.65;;
14526;SDS011;7350;51.208;4.238;2023-05-23T00:30:40;9.57;;;7.72;;
14526;SDS011;7350;51.208;4.238;2023-05-23T00:33:08;9.35;;;7.93;;
14526;SDS011;7350;51.208;4.238;2023-05-23T00:35:37;8.77;;;7.13;;
14526;SDS011;7350;51.208;4.238;2023-05-23T00:38:04;9.05;;;7.45;;
14526;SDS011;7350;51.208;4.238;2023-05-23T00:40:34;9.30;;;7.53;;
14526;SDS011;7350;51.208;4.238;2023-05-23T00:43:01;8.55;;;7.18;;
14526;SDS011;7350;51.208;4.238;2023-05-23T00:45:28;8.52;;;7.35;;
14526;SDS011;7350;51.208;4.238;2023-05-23T00:47:55;8.90;;;6.97;;
14526;SDS011;7350;51.208;4.238;2023-05-23T00:50:23;8.60;;;7.28;;
14526;SDS011;7350;51.208;4.238;2023-05-23T00:52:54;8.23;;;7.20;;
14526;SDS011;7350;51.208;4.238;2023-05-23T00:55:22;7.88;;;6.85;;
14526;SDS011;7350;51.208;4.238;2023-05-23T00:57:50;7.85;;;6.88;;
14526;SDS011;7350;51.208;4.238;2023-05-23T01:00:19;7.40;;;6.68;;
14526;SDS011;7350;51.208;4.238;2023-05-23T01:02:48;9.75;;;7.78;;
14526;SDS011;7350;51.208;4.238;2023-05-23T01:05:16;8.85;;;7.63;;
14526;SDS011;7350;51.208;4.238;2023-05-23T01:07:44;7.70;;;6.90;;
14526;SDS011;7350;51.208;4.238;2023-05-23T01:10:11;8.07;;;7.28;;
14526;SDS011;7350;51.208;4.238;2023-05-23T01:12:40;7.72;;;6.50;;
14526;SDS011;7350;51.208;4.238;2023-05-23T01:15:18;7.90;;;7.03;;
14526;SDS011;7350;51.208;4.238;2023-05-23T01:17:49;7.60;;;6.82;;
14526;SDS011;7350;51.208;4.238;2023-05-23T01:20:20;7.75;;;6.93;;
14526;SDS011;7350;51.208;4.238;2023-05-23T01:22:54;7.25;;;6.53;;
14526;SDS011;7350;51.208;4.238;2023-05-23T01:25:37;10.55;;;7.10;;
14526;SDS011;7350;51.208;4.238;2023-05-23T01:28:15;7.03;;;6.30;;
14526;SDS011;7350;51.208;4.238;2023-05-23T01:30:44;6.90;;;6.20;;
14526;SDS011;7350;51.208;4.238;2023-05-23T01:33:14;7.72;;;6.70;;
14526;SDS011;7350;51.208;4.238;2023-05-23T01:35:42;6.38;;;5.65;;
14526;SDS011;7350;51.208;4.238;2023-05-23T01:38:10;7.97;;;6.57;;
14526;SDS011;7350;51.208;4.238;2023-05-23T01:40:36;8.00;;;6.18;;
14526;SDS011;7350;51.208;4.238;2023-05-23T01:43:04;11.20;;;6.55;;
14526;SDS011;7350;51.208;4.238;2023-05-23T01:45:33;8.60;;;6.20;;
14526;SDS011;7350;51.208;4.238;2023-05-23T01:48:00;8.52;;;6.75;;
14526;SDS011;7350;51.208;4.238;2023-05-23T01:50:28;6.65;;;5.97;;
14526;SDS011;7350;51.208;4.238;2023-05-23T01:52:57;8.27;;;6.82;;
14526;SDS011;7350;51.208;4.238;2023-05-23T01:55:25;9.52;;;6.40;;
14526;SDS011;7350;51.208;4.238;2023-05-23T01:57:52;7.88;;;6.30;;
14526;SDS011;7350;51.208;4.238;2023-05-23T02:00:21;7.03;;;6.32;;
14526;SDS011;7350;51.208;4.238;2023-05-23T02:02:50;7.57;;;6.07;;
14526;SDS011;7350;51.208;4.238;2023-05-23T02:05:17;9.77;;;6.68;;
14526;SDS011;7350;51.208;4.238;2023-05-23T02:07:44;9.93;;;6.30;;
14526;SDS011;7350;51.208;4.238;2023-05-23T02:10:11;8.75;;;5.95;;
14526;SDS011;7350;51.208;4.238;2023-05-23T02:12:38;8.32;;;6.07;;
14526;SDS011;7350;51.208;4.238;2023-05-23T02:15:05;10.50;;;6.60;;
14526;SDS011;7350;51.208;4.238;2023-05-23T02:17:33;9.02;;;6.90;;
14526;SDS011;7350;51.208;4.238;2023-05-23T02:20:02;7.18;;;5.95;;
14526;SDS011;7350;51.208;4.238;2023-05-23T02:22:30;8.75;;;6.75;;
14526;SDS011;7350;51.208;4.238;2023-05-23T02:24:57;10.02;;;6.10;;
14526;SDS011;7350;51.208;4.238;2023-05-23T02:27:24;8.48;;;7.10;;
14526;SDS011;7350;51.208;4.238;2023-05-23T02:29:51;9.43;;;6.65;;
14526;SDS011;7350;51.208;4.238;2023-05-23T02:32:18;7.55;;;6.32;;
14526;SDS011;7350;51.208;4.238;2023-05-23T02:34:45;10.85;;;7.18;;
14526;SDS011;7350;51.208;4.238;2023-05-23T02:37:16;10.13;;;7.15;;
14526;SDS011;7350;51.208;4.238;2023-05-23T02:39:43;7.50;;;6.65;;
14526;SDS011;7350;51.208;4.238;2023-05-23T02:42:10;8.63;;;6.78;;
14526;SDS011;7350;51.208;4.238;2023-05-23T02:44:37;8.98;;;7.15;;
14526;SDS011;7350;51.208;4.238;2023-05-23T02:47:04;9.45;;;7.15;;
14526;SDS011;7350;51.208;4.238;2023-05-23T02:49:31;9.98;;;7.00;;
14526;SDS011;7350;51.208;4.238;2023-05-23T02:51:58;7.82;;;6.85;;
14526;SDS011;7350;51.208;4.238;2023-05-23T02:54:26;8.65;;;6.93;;
14526;SDS011;7350;51.208;4.238;2023-05-23T02:56:53;8.43;;;6.68;;
14526;SDS011;7350;51.208;4.238;2023-05-23T02:59:20;9.02;;;6.82;;
14526;SDS011;7350;51.208;4.238;2023-05-23T03:01:47;7.50;;;6.68;;
14526;SDS011;7350;51.208;4.238;2023-05-23T03:04:14;6.90;;;5.93;;
14526;SDS011;7350;51.208;4.238;2023-05-23T03:06:42;8.55;;;6.40;;
14526;SDS011;7350;51.208;4.238;2023-05-23T03:09:09;7.80;;;6.25;;
14526;SDS011;7350;51.208;4.238;2023-05-23T03:11:37;8.38;;;6.20;;
14526;SDS011;7350;51.208;4.238;2023-05-23T03:14:04;8.48;;;6.40;;
14526;SDS011;7350;51.208;4.238;2023-05-23T03:16:31;7.68;;;6.57;;
14526;SDS011;7350;51.208;4.238;2023-05-23T03:18:58;7.82;;;6.45;;
14526;SDS011;7350;51.208;4.238;2023-05-23T03:21:25;7.53;;;6.07;;
14526;SDS011;7350;51.208;4.238;2023-05-23T03:23:52;7.70;;;6.22;;
14526;SDS011;7350;51.208;4.238;2023-05-23T03:26:19;7.75;;;6.28;;
14526;SDS011;7350;51.208;4.238;2023-05-23T03:28:48;6.18;;;5.57;;
14526;SDS011;7350;51.208;4.238;2023-05-23T03:31:15;7.43;;;6.22;;
14526;SDS011;7350;51.208;4.238;2023-05-23T03:33:42;7.18;;;6.28;;
14526;SDS011;7350;51.208;4.238;2023-05-23T03:36:09;7.03;;;6.18;;
14526;SDS011;7350;51.208;4.238;2023-05-23T03:38:36;8.05;;;7.03;;
14526;SDS011;7350;51.208;4.238;2023-05-23T03:41:03;7.43;;;6.13;;
14526;SDS011;7350;51.208;4.238;2023-05-23T03:43:30;6.82;;;6.15;;
14526;SDS011;7350;51.208;4.238;2023-05-23T03:45:58;6.35;;;5.75;;
14526;SDS011;7350;51.208;4.238;2023-05-23T03:48:26;9.07;;;6.40;;
14526;SDS011;7350;51.208;4.238;2023-05-23T03:50:54;8.43;;;6.05;;
14526;SDS011;7350;51.208;4.238;2023-05-23T03:53:21;6.43;;;5.78;;
14526;SDS011;7350;51.208;4.238;2023-05-23T03:55:48;6.90;;;6.25;;
14526;SDS011;7350;51.208;4.238;2023-05-23T03:58:17;7.20;;;5.97;;
14526;SDS011;7350;51.208;4.238;2023-05-23T04:00:44;7.47;;;5.63;;
14526;SDS011;7350;51.208;4.238;2023-05-23T04:03:14;9.77;;;6.80;;
14526;SDS011;7350;51.208;4.238;2023-05-23T04:05:42;6.25;;;5.65;;
14526;SDS011;7350;51.208;4.238;2023-05-23T04:08:09;9.00;;;6.63;;
14526;SDS011;7350;51.208;4.238;2023-05-23T04:10:36;6.88;;;5.68;;
14526;SDS011;7350;51.208;4.238;2023-05-23T04:13:03;7.13;;;6.43;;
14526;SDS011;7350;51.208;4.238;2023-05-23T04:15:30;7.18;;;5.75;;
14526;SDS011;7350;51.208;4.238;2023-05-23T04:17:59;8.43;;;6.07;;
14526;SDS011;7350;51.208;4.238;2023-05-23T04:20:28;7.72;;;5.80;;
14526;SDS011;7350;51.208;4.238;2023-05-23T04:22:56;7.55;;;6.10;;
14526;SDS011;7350;51.208;4.238;2023-05-23T04:25:23;7.15;;;5.50;;
14526;SDS011;7350;51.208;4.238;2023-05-23T04:27:50;6.97;;;5.63;;
14526;SDS011;7350;51.208;4.238;2023-05-23T04:30:18;7.90;;;6.07;;
14526;SDS011;7350;51.208;4.238;2023-05-23T04:32:45;8.88;;;6.00;;
14526;SDS011;7350;51.208;4.238;2023-05-23T04:35:12;6.93;;;5.53;;
14526;SDS011;7350;51.208;4.238;2023-05-23T04:37:40;7.72;;;6.68;;
14526;SDS011;7350;51.208;4.238;2023-05-23T04:40:09;14.77;;;6.10;;
14526;SDS011;7350;51.208;4.238;2023-05-23T04:42:38;13.02;;;6.30;;
14526;SDS011;7350;51.208;4.238;2023-05-23T04:45:07;9.57;;;6.20;;
14526;SDS011;7350;51.208;4.238;2023-05-23T04:47:35;11.18;;;6.75;;
14526;SDS011;7350;51.208;4.238;2023-05-23T04:50:02;9.40;;;6.22;;
14526;SDS011;7350;51.208;4.238;2023-05-23T04:52:29;10.73;;;6.20;;
14526;SDS011;7350;51.208;4.238;2023-05-23T04:54:59;8.90;;;5.82;;
14526;SDS011;7350;51.208;4.238;2023-05-23T04:57:26;9.27;;;5.80;;
14526;SDS011;7350;51.208;4.238;2023-05-23T04:59:53;9.50;;;5.95;;
14526;SDS011;7350;51.208;4.238;2023-05-23T05:02:20;10.82;;;5.97;;
14526;SDS011;7350;51.208;4.238;2023-05-23T05:04:48;9.75;;;6.13;;
14526;SDS011;7350;51.208;4.238;2023-05-23T05:07:15;7.82;;;5.80;;
14526;SDS011;7350;51.208;4.238;2023-05-23T05:09:42;9.10;;;6.57;;
14526;SDS011;7350;51.208;4.238;2023-05-23T05:12:10;12.13;;;6.63;;
14526;SDS011;7350;51.208;4.238;2023-05-23T05:14:37;11.25;;;7.00;;
14526;SDS011;7350;51.208;4.238;2023-05-23T05:17:04;11.82;;;7.05;;
14526;SDS011;7350;51.208;4.238;2023-05-23T05:19:31;12.77;;;7.38;;
14526;SDS011;7350;51.208;4.238;2023-05-23T05:21:58;13.75;;;7.63;;
14526;SDS011;7350;51.208;4.238;2023-05-23T05:24:25;11.68;;;7.32;;
14526;SDS011;7350;51.208;4.238;2023-05-23T05:26:53;14.00;;;7.78;;
14526;SDS011;7350;51.208;4.238;2023-05-23T05:29:21;13.52;;;7.60;;
14526;SDS011;7350;51.208;4.238;2023-05-23T05:31:48;11.73;;;7.13;;
14526;SDS011;7350;51.208;4.238;2023-05-23T05:34:16;13.25;;;7.00;;
14526;SDS011;7350;51.208;4.238;2023-05-23T05:36:43;9.52;;;6.35;;
14526;SDS011;7350;51.208;4.238;2023-05-23T05:39:12;12.23;;;6.22;;
14526;SDS011;7350;51.208;4.238;2023-05-23T05:41:39;11.10;;;6.82;;
14526;SDS011;7350;51.208;4.238;2023-05-23T05:44:06;10.32;;;5.82;;
14526;SDS011;7350;51.208;4.238;2023-05-23T05:46:34;8.60;;;6.22;;
14526;SDS011;7350;51.208;4.238;2023-05-23T05:49:01;10.25;;;6.05;;
14526;SDS011;7350;51.208;4.238;2023-05-23T05:51:28;8.82;;;6.13;;
14526;SDS011;7350;51.208;4.238;2023-05-23T05:53:55;11.32;;;6.05;;
14526;SDS011;7350;51.208;4.238;2023-05-23T05:56:22;11.25;;;5.68;;
14526;SDS011;7350;51.208;4.238;2023-05-23T05:58:50;10.88;;;5.82;;
14526;SDS011;7350;51.208;4.238;2023-05-23T06:01:17;7.97;;;5.40;;
14526;SDS011;7350;51.208;4.238;2023-05-23T06:03:45;9.63;;;5.20;;
14526;SDS011;7350;51.208;4.238;2023-05-23T06:06:12;10.95;;;5.53;;
14526;SDS011;7350;51.208;4.238;2023-05-23T06:08:40;6.80;;;5.03;;
14526;SDS011;7350;51.208;4.238;2023-05-23T06:11:07;10.38;;;4.85;;
14526;SDS011;7350;51.208;4.238;2023-05-23T06:13:34;6.68;;;4.50;;
14526;SDS011;7350;51.208;4.238;2023-05-23T06:16:01;8.50;;;4.70;;
14526;SDS011;7350;51.208;4.238;2023-05-23T06:18:28;7.93;;;4.88;;
14526;SDS011;7350;51.208;4.238;2023-05-23T06:20:56;7.97;;;4.47;;
14526;SDS011;7350;51.208;4.238;2023-05-23T06:23:23;9.77;;;5.13;;
14526;SDS011;7350;51.208;4.238;2023-05-23T06:25:50;9.20;;;4.78;;
14526;SDS011;7350;51.208;4.238;2023-05-23T06:28:17;11.02;;;5.40;;
14526;SDS011;7350;51.208;4.238;2023-05-23T06:30:44;9.18;;;5.20;;
14526;SDS011;7350;51.208;4.238;2023-05-23T06:33:11;9.32;;;4.47;;
14526;SDS011;7350;51.208;4.238;2023-05-23T06:35:38;7.18;;;4.60;;
14526;SDS011;7350;51.208;4.238;2023-05-23T06:38:06;8.40;;;4.75;;
14526;SDS011;7350;51.208;4.238;2023-05-23T06:40:33;8.55;;;4.25;;
14526;SDS011;7350;51.208;4.238;2023-05-23T06:43:00;9.32;;;5.10;;
14526;SDS011;7350;51.208;4.238;2023-05-23T06:45:27;10.48;;;5.53;;
14526;SDS011;7350;51.208;4.238;2023-05-23T06:47:54;7.10;;;4.85;;
14526;SDS011;7350;51.208;4.238;2023-05-23T06:50:21;8.38;;;4.95;;
14526;SDS011;7350;51.208;4.238;2023-05-23T06:52:48;10.95;;;5.30;;
14526;SDS011;7350;51.208;4.238;2023-05-23T06:55:17;10.27;;;4.70;;
14526;SDS011;7350;51.208;4.238;2023-05-23T06:57:44;7.45;;;5.03;;
14526;SDS011;7350;51.208;4.238;2023-05-23T07:00:11;9.75;;;4.63;;
14526;SDS011;7350;51.208;4.238;2023-05-23T07:02:39;8.02;;;5.20;;
14526;SDS011;7350;51.208;4.238;2023-05-23T07:05:06;8.63;;;4.60;;
14526;SDS011;7350;51.208;4.238;2023-05-23T07:07:34;7.20;;;4.72;;
14526;SDS011;7350;51.208;4.238;2023-05-23T07:10:01;6.43;;;4.72;;
14526;SDS011;7350;51.208;4.238;2023-05-23T07:12:29;7.13;;;4.72;;
14526;SDS011;7350;51.208;4.238;2023-05-23T07:14:56;6.88;;;4.60;;
14526;SDS011;7350;51.208;4.238;2023-05-23T07:17:23;8.27;;;5.07;;
14526;SDS011;7350;51.208;4.238;2023-05-23T07:19:50;7.60;;;4.93;;
14526;SDS011;7350;51.208;4.238;2023-05-23T07:22:17;8.38;;;5.25;;
14526;SDS011;7350;51.208;4.238;2023-05-23T07:24:44;8.75;;;5.13;;
14526;SDS011;7350;51.208;4.238;2023-05-23T07:27:10;11.05;;;5.72;;
14526;SDS011;7350;51.208;4.238;2023-05-23T07:29:39;11.27;;;5.53;;
14526;SDS011;7350;51.208;4.238;2023-05-23T07:32:06;8.85;;;5.30;;
14526;SDS011;7350;51.208;4.238;2023-05-23T07:34:33;9.52;;;5.50;;
14526;SDS011;7350;51.208;4.238;2023-05-23T07:37:00;10.93;;;5.53;;
14526;SDS011;7350;51.208;4.238;2023-05-23T07:39:27;7.93;;;5.18;;
14526;SDS011;7350;51.208;4.238;2023-05-23T07:41:54;10.65;;;5.75;;
14526;SDS011;7350;51.208;4.238;2023-05-23T07:44:21;9.27;;;5.75;;
14526;SDS011;7350;51.208;4.238;2023-05-23T07:46:49;9.15;;;5.53;;
14526;SDS011;7350;51.208;4.238;2023-05-23T07:49:16;8.70;;;5.45;;
14526;SDS011;7350;51.208;4.238;2023-05-23T07:51:43;8.05;;;5.55;;
14526;SDS011;7350;51.208;4.238;2023-05-23T07:54:10;7.43;;;5.10;;
14526;SDS011;7350;51.208;4.238;2023-05-23T07:56:37;10.05;;;5.55;;
14526;SDS011;7350;51.208;4.238;2023-05-23T07:59:04;7.35;;;5.25;;
14526;SDS011;7350;51.208;4.238;2023-05-23T08:01:32;8.30;;;5.72;;
14526;SDS011;7350;51.208;4.238;2023-05-23T08:04:00;7.20;;;4.80;;
14526;SDS011;7350;51.208;4.238;2023-05-23T08:06:27;8.00;;;4.80;;
14526;SDS011;7350;51.208;4.238;2023-05-23T08:08:55;8.52;;;5.22;;
14526;SDS011;7350;51.208;4.238;2023-05-23T08:11:22;8.48;;;5.32;;
14526;SDS011;7350;51.208;4.238;2023-05-23T08:13:49;8.05;;;4.82;;
14526;SDS011;7350;51.208;4.238;2023-05-23T08:16:16;7.60;;;5.47;;
14526;SDS011;7350;51.208;4.238;2023-05-23T08:18:43;7.63;;;4.85;;
14526;SDS011;7350;51.208;4.238;2023-05-23T08:21:11;6.55;;;4.78;;
14526;SDS011;7350;51.208;4.238;2023-05-23T08:23:38;5.82;;;5.05;;
14526;SDS011;7350;51.208;4.238;2023-05-23T08:26:05;7.63;;;5.10;;
14526;SDS011;7350;51.208;4.238;2023-05-23T08:28:32;7.55;;;4.60;;
14526;SDS011;7350;51.208;4.238;2023-05-23T08:30:59;5.13;;;4.60;;
14526;SDS011;7350;51.208;4.238;2023-05-23T08:33:26;8.40;;;4.63;;
14526;SDS011;7350;51.208;4.238;2023-05-23T08:35:53;8.15;;;4.85;;
14526;SDS011;7350;51.208;4.238;2023-05-23T08:38:21;7.30;;;4.25;;
14526;SDS011;7350;51.208;4.238;2023-05-23T08:40:49;6.25;;;4.18;;
14526;SDS011;7350;51.208;4.238;2023-05-23T08:43:16;5.15;;;4.10;;
14526;SDS011;7350;51.208;4.238;2023-05-23T08:45:44;4.78;;;4.28;;
14526;SDS011;7350;51.208;4.238;2023-05-23T08:48:14;5.47;;;4.00;;
14526;SDS011;7350;51.208;4.238;2023-05-23T08:50:44;6.20;;;4.15;;
14526;SDS011;7350;51.208;4.238;2023-05-23T08:53:13;6.45;;;4.00;;
14526;SDS011;7350;51.208;4.238;2023-05-23T08:55:45;5.68;;;4.15;;
14526;SDS011;7350;51.208;4.238;2023-05-23T08:58:15;5.82;;;3.95;;
14526;SDS011;7350;51.208;4.238;2023-05-23T09:00:44;5.38;;;3.75;;
14526;SDS011;7350;51.208;4.238;2023-05-23T09:03:12;6.25;;;4.47;;
14526;SDS011;7350;51.208;4.238;2023-05-23T09:05:40;6.10;;;4.07;;
14526;SDS011;7350;51.208;4.238;2023-05-23T09:08:07;3.85;;;3.42;;
14526;SDS011;7350;51.208;4.238;2023-05-23T09:10:34;5.78;;;3.85;;
14526;SDS011;7350;51.208;4.238;2023-05-23T09:13:03;3.88;;;3.42;;
14526;SDS011;7350;51.208;4.238;2023-05-23T09:15:31;5.70;;;3.97;;
14526;SDS011;7350;51.208;4.238;2023-05-23T09:17:58;4.05;;;3.65;;
14526;SDS011;7350;51.208;4.238;2023-05-23T09:20:27;5.70;;;3.67;;
14526;SDS011;7350;51.208;4.238;2023-05-23T09:22:54;4.70;;;3.63;;
14526;SDS011;7350;51.208;4.238;2023-05-23T09:25:21;3.88;;;3.20;;
14526;SDS011;7350;51.208;4.238;2023-05-23T09:27:50;5.53;;;3.70;;
14526;SDS011;7350;51.208;4.238;2023-05-23T09:30:19;5.65;;;3.50;;
14526;SDS011;7350;51.208;4.238;2023-05-23T09:32:56;3.83;;;3.08;;
14526;SDS011;7350;51.208;4.238;2023-05-23T09:35:25;3.70;;;2.90;;
14526;SDS011;7350;51.208;4.238;2023-05-23T09:37:55;5.82;;;3.45;;
14526;SDS011;7350;51.208;4.238;2023-05-23T09:40:28;4.22;;;3.15;;
14526;SDS011;7350;51.208;4.238;2023-05-23T09:42:56;5.40;;;3.40;;
14526;SDS011;7350;51.208;4.238;2023-05-23T09:45:30;3.30;;;3.00;;
14526;SDS011;7350;51.208;4.238;2023-05-23T09:47:57;4.10;;;2.75;;
14526;SDS011;7350;51.208;4.238;2023-05-23T09:50:29;5.22;;;3.60;;
14526;SDS011;7350;51.208;4.238;2023-05-23T09:52:57;5.07;;;3.08;;
14526;SDS011;7350;51.208;4.238;2023-05-23T09:55:24;4.93;;;2.90;;
14526;SDS011;7350;51.208;4.238;2023-05-23T09:57:52;5.80;;;3.17;;
14526;SDS011;7350;51.208;4.238;2023-05-23T10:00:20;4.57;;;3.05;;
14526;SDS011;7350;51.208;4.238;2023-05-23T10:02:54;4.90;;;3.17;;
14526;SDS011;7350;51.208;4.238;2023-05-23T10:05:30;5.72;;;3.08;;
14526;SDS011;7350;51.208;4.238;2023-05-23T10:08:00;5.03;;;3.13;;
14526;SDS011;7350;51.208;4.238;2023-05-23T10:10:31;6.22;;;3.03;;
14526;SDS011;7350;51.208;4.238;2023-05-23T10:13:00;6.90;;;3.38;;
14526;SDS011;7350;51.208;4.238;2023-05-23T10:15:30;5.13;;;2.78;;
14526;SDS011;7350;51.208;4.238;2023-05-23T10:18:08;4.60;;;3.03;;
14526;SDS011;7350;51.208;4.238;2023-05-23T10:20:42;4.63;;;2.78;;
14526;SDS011;7350;51.208;4.238;2023-05-23T10:23:12;5.05;;;2.80;;
14526;SDS011;7350;51.208;4.238;2023-05-23T10:25:40;5.63;;;3.10;;
14526;SDS011;7350;51.208;4.238;2023-05-23T10:28:09;5.93;;;3.00;;
14526;SDS011;7350;51.208;4.238;2023-05-23T10:30:37;4.50;;;2.80;;
14526;SDS011;7350;51.208;4.238;2023-05-23T10:33:04;5.60;;;2.65;;
14526;SDS011;7350;51.208;4.238;2023-05-23T10:35:39;5.65;;;3.03;;
14526;SDS011;7350;51.208;4.238;2023-05-23T10:38:17;4.43;;;2.75;;
14526;SDS011;7350;51.208;4.238;2023-05-23T10:40:54;6.75;;;3.10;;
14526;SDS011;7350;51.208;4.238;2023-05-23T10:43:39;6.93;;;3.10;;
14526;SDS011;7350;51.208;4.238;2023-05-23T10:46:11;6.10;;;2.78;;
14526;SDS011;7350;51.208;4.238;2023-05-23T10:48:40;5.65;;;3.00;;
14526;SDS011;7350;51.208;4.238;2023-05-23T10:51:09;5.72;;;2.50;;
14526;SDS011;7350;51.208;4.238;2023-05-23T10:53:39;5.93;;;2.78;;
14526;SDS011;7350;51.208;4.238;2023-05-23T10:56:07;6.35;;;3.05;;
14526;SDS011;7350;51.208;4.238;2023-05-23T10:58:35;4.00;;;2.40;;
14526;SDS011;7350;51.208;4.238;2023-05-23T11:01:05;7.80;;;3.67;;
14526;SDS011;7350;51.208;4.238;2023-05-23T11:03:33;5.22;;;2.72;;
14526;SDS011;7350;51.208;4.238;2023-05-23T11:06:02;7.72;;;3.42;;
14526;SDS011;7350;51.208;4.238;2023-05-23T11:08:37;8.32;;;3.28;;
14526;SDS011;7350;51.208;4.238;2023-05-23T11:11:06;6.65;;;2.97;;
14526;SDS011;7350;51.208;4.238;2023-05-23T11:13:52;7.38;;;3.00;;
14526;SDS011;7350;51.208;4.238;2023-05-23T11:16:27;6.47;;;2.78;;
14526;SDS011;7350;51.208;4.238;2023-05-23T11:21:51;8.18;;;3.40;;
14526;SDS011;7350;51.208;4.238;2023-05-23T11:24:21;6.45;;;3.20;;
14526;SDS011;7350;51.208;4.238;2023-05-23T11:26:52;8.25;;;3.00;;
14526;SDS011;7350;51.208;4.238;2023-05-23T11:29:24;8.40;;;2.95;;
14526;SDS011;7350;51.208;4.238;2023-05-23T11:31:52;8.70;;;2.97;;
14526;SDS011;7350;51.208;4.238;2023-05-23T11:34:19;8.90;;;3.17;;
14526;SDS011;7350;51.208;4.238;2023-05-23T11:36:50;7.53;;;3.05;;
14526;SDS011;7350;51.208;4.238;2023-05-23T11:39:19;8.32;;;3.40;;
14526;SDS011;7350;51.208;4.238;2023-05-23T11:41:49;6.35;;;2.97;;
14526;SDS011;7350;51.208;4.238;2023-05-23T11:44:24;6.28;;;2.53;;
14526;SDS011;7350;51.208;4.238;2023-05-23T11:47:00;5.82;;;2.78;;
14526;SDS011;7350;51.208;4.238;2023-05-23T11:49:29;7.32;;;3.20;;
14526;SDS011;7350;51.208;4.238;2023-05-23T11:51:57;9.65;;;2.80;;
14526;SDS011;7350;51.208;4.238;2023-05-23T11:54:25;5.85;;;2.80;;
14526;SDS011;7350;51.208;4.238;2023-05-23T11:56:53;6.18;;;2.90;;
14526;SDS011;7350;51.208;4.238;2023-05-23T11:59:20;6.70;;;3.17;;
14526;SDS011;7350;51.208;4.238;2023-05-23T12:01:47;4.85;;;2.35;;
14526;SDS011;7350;51.208;4.238;2023-05-23T12:04:14;7.38;;;2.80;;
14526;SDS011;7350;51.208;4.238;2023-05-23T12:06:44;6.45;;;3.10;;
14526;SDS011;7350;51.208;4.238;2023-05-23T12:09:12;7.13;;;3.15;;
14526;SDS011;7350;51.208;4.238;2023-05-23T12:11:41;6.63;;;2.85;;
14526;SDS011;7350;51.208;4.238;2023-05-23T12:14:13;6.90;;;2.97;;
14526;SDS011;7350;51.208;4.238;2023-05-23T12:16:42;6.25;;;2.78;;
14526;SDS011;7350;51.208;4.238;2023-05-23T12:19:10;6.25;;;2.60;;
14526;SDS011;7350;51.208;4.238;2023-05-23T12:21:41;6.63;;;3.00;;
14526;SDS011;7350;51.208;4.238;2023-05-23T12:24:16;6.88;;;3.30;;
14526;SDS011;7350;51.208;4.238;2023-05-23T12:26:51;6.78;;;2.70;;
14526;SDS011;7350;51.208;4.238;2023-05-23T12:29:19;6.93;;;3.05;;
14526;SDS011;7350;51.208;4.238;2023-05-23T12:31:47;5.32;;;2.90;;
14526;SDS011;7350;51.208;4.238;2023-05-23T12:34:15;5.20;;;2.50;;
14526;SDS011;7350;51.208;4.238;2023-05-23T12:36:42;6.07;;;2.45;;
14526;SDS011;7350;51.208;4.238;2023-05-23T12:39:09;5.45;;;2.63;;
14526;SDS011;7350;51.208;4.238;2023-05-23T12:41:37;6.47;;;2.70;;
14526;SDS011;7350;51.208;4.238;2023-05-23T12:44:09;5.50;;;2.60;;
14526;SDS011;7350;51.208;4.238;2023-05-23T12:46:40;5.97;;;2.40;;
14526;SDS011;7350;51.208;4.238;2023-05-23T12:49:07;5.85;;;2.80;;
14526;SDS011;7350;51.208;4.238;2023-05-23T12:51:34;6.40;;;2.42;;
14526;SDS011;7350;51.208;4.238;2023-05-23T12:54:02;5.38;;;2.10;;
14526;SDS011;7350;51.208;4.238;2023-05-23T12:56:29;5.57;;;2.65;;
14526;SDS011;7350;51.208;4.238;2023-05-23T12:58:56;6.70;;;2.83;;
14526;SDS011;7350;51.208;4.238;2023-05-23T13:01:24;6.60;;;2.47;;
14526;SDS011;7350;51.208;4.238;2023-05-23T13:03:51;5.75;;;2.55;;
14526;SDS011;7350;51.208;4.238;2023-05-23T13:06:18;6.40;;;2.45;;
14526;SDS011;7350;51.208;4.238;2023-05-23T13:08:45;5.95;;;2.75;;
14526;SDS011;7350;51.208;4.238;2023-05-23T13:11:14;6.03;;;2.65;;
14526;SDS011;7350;51.208;4.238;2023-05-23T13:13:41;5.13;;;2.40;;
14526;SDS011;7350;51.208;4.238;2023-05-23T13:16:09;5.45;;;2.60;;
14526;SDS011;7350;51.208;4.238;2023-05-23T13:18:37;6.43;;;2.50;;
14526;SDS011;7350;51.208;4.238;2023-05-23T13:21:06;4.53;;;2.25;;
14526;SDS011;7350;51.208;4.238;2023-05-23T13:23:33;5.63;;;2.30;;
14526;SDS011;7350;51.208;4.238;2023-05-23T13:26:02;5.47;;;2.72;;
14526;SDS011;7350;51.208;4.238;2023-05-23T13:28:30;5.50;;;2.63;;
14526;SDS011;7350;51.208;4.238;2023-05-23T13:30:57;6.30;;;2.28;;
14526;SDS011;7350;51.208;4.238;2023-05-23T13:33:25;4.60;;;2.33;;
14526;SDS011;7350;51.208;4.238;2023-05-23T13:35:54;6.65;;;2.65;;
14526;SDS011;7350;51.208;4.238;2023-05-23T13:38:21;4.15;;;2.30;;
14526;SDS011;7350;51.208;4.238;2023-05-23T13:40:48;7.65;;;2.42;;
14526;SDS011;7350;51.208;4.238;2023-05-23T13:43:16;5.57;;;2.22;;
14526;SDS011;7350;51.208;4.238;2023-05-23T13:45:43;4.82;;;2.30;;
14526;SDS011;7350;51.208;4.238;2023-05-23T13:48:11;5.68;;;2.28;;
14526;SDS011;7350;51.208;4.238;2023-05-23T13:50:38;8.40;;;2.88;;
14526;SDS011;7350;51.208;4.238;2023-05-23T13:53:06;4.40;;;2.20;;
14526;SDS011;7350;51.208;4.238;2023-05-23T13:55:40;6.65;;;2.58;;
14526;SDS011;7350;51.208;4.238;2023-05-23T13:58:09;6.95;;;2.47;;
14526;SDS011;7350;51.208;4.238;2023-05-23T14:00:36;5.60;;;2.65;;
14526;SDS011;7350;51.208;4.238;2023-05-23T14:03:03;4.50;;;2.20;;
14526;SDS011;7350;51.208;4.238;2023-05-23T14:05:30;4.63;;;2.03;;
14526;SDS011;7350;51.208;4.238;2023-05-23T14:07:57;5.25;;;2.17;;
14526;SDS011;7350;51.208;4.238;2023-05-23T14:10:25;5.38;;;2.22;;
14526;SDS011;7350;51.208;4.238;2023-05-23T14:12:53;3.65;;;2.10;;
14526;SDS011;7350;51.208;4.238;2023-05-23T14:15:20;4.93;;;2.50;;
14526;SDS011;7350;51.208;4.238;2023-05-23T14:17:47;4.95;;;2.53;;
14526;SDS011;7350;51.208;4.238;2023-05-23T14:20:19;5.70;;;2.42;;
14526;SDS011;7350;51.208;4.238;2023-05-23T14:22:46;5.20;;;2.25;;
14526;SDS011;7350;51.208;4.238;2023-05-23T14:25:13;6.80;;;2.47;;
14526;SDS011;7350;51.208;4.238;2023-05-23T14:27:41;6.22;;;2.35;;
14526;SDS011;7350;51.208;4.238;2023-05-23T14:30:09;4.38;;;2.30;;
14526;SDS011;7350;51.208;4.238;2023-05-23T14:32:36;5.25;;;2.45;;
14526;SDS011;7350;51.208;4.238;2023-05-23T14:35:04;5.55;;;2.33;;
14526;SDS011;7350;51.208;4.238;2023-05-23T14:37:31;6.53;;;2.67;;
14526;SDS011;7350;51.208;4.238;2023-05-23T14:39:58;8.15;;;2.83;;
14526;SDS011;7350;51.208;4.238;2023-05-23T14:42:25;7.78;;;2.63;;
14526;SDS011;7350;51.208;4.238;2023-05-23T14:44:54;5.93;;;2.42;;
14526;SDS011;7350;51.208;4.238;2023-05-23T14:47:21;8.15;;;2.65;;
14526;SDS011;7350;51.208;4.238;2023-05-23T14:49:47;7.55;;;3.00;;
14526;SDS011;7350;51.208;4.238;2023-05-23T14:52:15;8.98;;;2.80;;
14526;SDS011;7350;51.208;4.238;2023-05-23T14:54:42;7.50;;;3.30;;
14526;SDS011;7350;51.208;4.238;2023-05-23T14:57:09;6.72;;;3.03;;
14526;SDS011;7350;51.208;4.238;2023-05-23T14:59:36;9.48;;;3.05;;
14526;SDS011;7350;51.208;4.238;2023-05-23T15:02:04;9.95;;;3.00;;
14526;SDS011;7350;51.208;4.238;2023-05-23T15:04:32;5.45;;;2.30;;
14526;SDS011;7350;51.208;4.238;2023-05-23T15:06:59;9.32;;;2.85;;
14526;SDS011;7350;51.208;4.238;2023-05-23T15:09:26;9.07;;;2.95;;